• Join FlightAware (Why Join?)
  • Login
  • US Flag 
11:31AM EDT


 

Airport Tracker/Info


-or-


 

Live Flight TrackerFlight Track Log ✈ OAE558 ✈ 09-May-2013 ✈ KBWI - KNGU

Flight Track Log - Related Links

Times and Time Zones

All times are in EDT time to prevent confusion due to time zone crossing. See the OAE558 flight status page for this flight to view local times or setup timezone preferences in your user account.

Time Position Orientation Groundspeed Altitude Reporting Facility
EDT Latitude Longitude Course Direction KTS MPH feet Rate Location/Type
05:21AM 39.1480 -76.5910 138° Southeast 2,700  Level FlightAware
05:22AM 39.1210 -76.5590 137° Southeast 255 293 3,800 2,700 Climbing FlightAware
05:22AM 39.1070 -76.5460 144° Southeast 265 305 4,500 2,880 Climbing FlightAware
05:22AM 39.0940 -76.5390 157° South 268 308 5,000 3,360 Climbing FlightAware
05:23AM 39.0380 -76.5490 188° South 278 320 7,600 3,360 Climbing FlightAware
05:23AM 38.9990 -76.5620 195° South 290 334 9,200 2,700 Climbing FlightAware
05:24AM 38.9360 -76.5830 195° South 328 377 11,000 2,820 Climbing FlightAware
05:25AM 38.8760 -76.6030 195° South 346 398 13,200 2,280 Climbing FlightAware
05:25AM 38.8120 -76.6230 194° South 353 406 14,100 2,280 Climbing FlightAware
05:26AM 38.7420 -76.6460 194° South 362 417 16,500 3,120 Climbing FlightAware
05:27AM 38.6850 -76.6650 195° South 366 421 18,300 1,860 Climbing FlightAware
05:27AM 38.6180 -76.6870 194° South 365 420 19,000 300 Climbing FlightAware
05:28AM 38.5820 -76.6980 193° South 19,000  Level FlightAware
05:28AM 38.5080 -76.6980 180° South 19,000  Level FlightAware
05:29AM 38.4800 -76.6940 174° South 360 414 19,000  Level FlightAware
05:29AM 38.4610 -76.6920 175° South 19,000  Level FlightAware
05:30AM 38.3890 -76.6820 174° South 19,000  Level FlightAware
05:31AM 38.3160 -76.6720 174° South 19,000  Level FlightAware
05:31AM 38.2490 -76.6630 174° South 19,000  Level FlightAware
05:32AM 38.1730 -76.6520 174° South 19,000  Level FlightAware
05:33AM 38.1230 -76.6460 175° South 19,000  Level FlightAware
05:33AM 38.0540 -76.6460 180° South 355 409 19,000 -900 Level FlightAware
05:34AM 37.9790 -76.6510 183° South 361 415 17,700 -1,440 Descending FlightAware
05:35AM 37.9350 -76.6550 184° South 360 414 17,200 -1,020 Descending FlightAware
05:35AM 37.8900 -76.6580 183° South 358 412 16,700 -1,200 Descending FlightAware
05:35AM 37.8520 -76.6470 167° South 354 407 16,200 -480 Descending FlightAware
05:36AM 37.7860 -76.6390 175° South 354 407 16,200 -2,220 Level FlightAware
05:36AM 37.7680 -76.5440 103° East 13,900 -3,420 Descending FlightAware
05:37AM 37.7170 -76.4720 132° Southeast 12,500 -2,100 Descending FlightAware
05:37AM 37.6819 -76.4550 132° Southeast 366 421 11,600 -2,400 Descending Washington Center
05:38AM 37.6511 -76.4075 129° Southeast 356 410 10,700 -1,500 Descending Washington Center
05:38AM 37.6158 -76.3625 135° Southeast 353 406 10,200 -720 Descending Washington Center
05:39AM 37.5869 -76.3256 135° Southeast 350 403 10,000 -300 Descending Washington Center
05:39AM 37.5475 -76.3122 165° South 287 330 9,900 -120 Descending Washington Center
05:40AM 37.5100 -76.3067 173° South 303 349 9,900 60 Level Washington Center
05:40AM 37.4744 -76.3167 193° South 267 307 10,000 60 Climbing Washington Center
05:41AM 37.4328 -76.3164 180° South 278 320 10,000  Level Washington Center
05:41AM 37.3972 -76.3239 190° South 280 322 10,000 -840 Level Washington Center
05:42AM 37.3556 -76.3233 179° South 278 320 9,200 -2,040 Descending Washington Center
05:42AM 37.3219 -76.3308 190° South 271 312 7,900 -1,800 Descending Washington Center
05:43AM 37.2825 -76.3097 157° South 271 312 7,400 -1,620 Descending Washington Center
05:43AM 37.2472 -76.2911 157° South 273 314 6,300 -1,980 Descending Washington Center
05:44AM 37.2139 -76.2700 153° Southeast 266 306 5,500 -1,320 Descending Washington Center
05:45AM 37.1764 -76.2514 158° South 254 292 4,900 -900 Descending Washington Center
05:45AM 37.1494 -76.2356 155° Southeast 266 306 4,600 -780 Descending Washington Center
05:45AM 37.1203 -76.2169 153° Southeast 242 278 4,200 -720 Descending Washington Center
05:46AM 37.0622 -76.1828 155° Southeast 210 242 3,600 -840 Descending Washington Center
05:47AM 37.0058 -76.1667 167° South 194 223 2,600 -840 Descending Washington Center
05:49AM 36.9578 -76.1742 187° South 161 185 1,800 -720 Descending Washington Center